createdAt,value
2022-10-06T00:01:12.672Z,99580.00
2022-10-06T00:03:40.836Z,99575.19
2022-10-06T00:06:11.015Z,99578.41
2022-10-06T00:08:40.850Z,99578.84
2022-10-06T00:11:12.756Z,99574.59
2022-10-06T00:13:40.908Z,99575.00
2022-10-06T00:16:22.430Z,99574.59
2022-10-06T00:18:49.825Z,99584.25
2022-10-06T00:21:17.209Z,99586.63
2022-10-06T00:23:45.019Z,99586.47
2022-10-06T00:26:17.575Z,99584.44
2022-10-06T00:28:47.820Z,99582.25
2022-10-06T00:31:16.277Z,99580.63
2022-10-06T00:33:43.383Z,99604.13
2022-10-06T00:36:10.870Z,99593.94
2022-10-06T00:38:38.509Z,99600.47
2022-10-06T00:41:16.635Z,99603.31
2022-10-06T00:43:50.874Z,99605.63
2022-10-06T00:46:30.166Z,99607.09
2022-10-06T00:49:37.017Z,99617.06
2022-10-06T00:52:09.109Z,99620.41
2022-10-06T00:54:36.713Z,99622.22
2022-10-06T00:57:05.995Z,99618.53
2022-10-06T00:59:33.426Z,99612.00
2022-10-06T01:02:07.269Z,99619.84
2022-10-06T01:04:37.940Z,99618.22
2022-10-06T01:07:05.102Z,99623.22
2022-10-06T01:09:32.828Z,99624.84
2022-10-06T01:12:04.110Z,99620.28
2022-10-06T01:14:31.830Z,99623.09
2022-10-06T01:17:08.730Z,99626.72
2022-10-06T01:19:55.145Z,99634.19
2022-10-06T01:22:58.066Z,99622.47
2022-10-06T01:25:27.008Z,99624.31
2022-10-06T01:27:55.959Z,99622.88
2022-10-06T01:30:33.158Z,99626.38
2022-10-06T01:33:00.658Z,99633.22
2022-10-06T01:35:28.121Z,99625.13
2022-10-06T01:37:58.664Z,99624.22
2022-10-06T01:40:29.002Z,99622.00
2022-10-06T01:42:58.309Z,99633.56
2022-10-06T01:45:27.145Z,99636.94
2022-10-06T01:47:54.212Z,99639.66
2022-10-06T01:50:22.098Z,99635.50
2022-10-06T01:52:49.172Z,99637.34
2022-10-06T01:55:17.266Z,99644.00
2022-10-06T01:57:44.391Z,99655.69
2022-10-06T02:00:13.328Z,99654.25
2022-10-06T02:02:42.537Z,99658.53
2022-10-06T02:05:09.881Z,99661.03
2022-10-06T02:07:40.279Z,99659.41
2022-10-06T02:10:08.567Z,99657.06
2022-10-06T02:12:36.237Z,99659.41
2022-10-06T02:15:04.286Z,99653.06
2022-10-06T02:17:31.605Z,99657.16
2022-10-06T02:19:58.763Z,99659.75
2022-10-06T02:22:27.580Z,99663.22
2022-10-06T02:24:54.843Z,99653.81
2022-10-06T02:27:22.133Z,99668.94
2022-10-06T02:29:50.252Z,99670.53
2022-10-06T02:32:17.518Z,99672.88
2022-10-06T02:34:45.438Z,99678.03
2022-10-06T02:37:13.424Z,99682.91
2022-10-06T02:39:40.466Z,99685.34
2022-10-06T02:42:08.952Z,99696.06
2022-10-06T02:44:38.544Z,99698.00
2022-10-06T02:47:05.680Z,99708.88
2022-10-06T02:49:32.667Z,99719.84
2022-10-06T02:51:59.761Z,99718.09
2022-10-06T02:54:26.906Z,99725.88
2022-10-06T02:56:53.926Z,99736.25
2022-10-06T02:59:21.107Z,99742.91
2022-10-06T03:01:48.478Z,99736.97
2022-10-06T03:04:19.036Z,99723.19
2022-10-06T03:06:46.134Z,99723.88
2022-10-06T03:09:18.863Z,99736.72
2022-10-06T03:11:46.133Z,99745.50
2022-10-06T03:14:22.645Z,99729.53
2022-10-06T03:16:51.868Z,99739.22
2022-10-06T03:19:23.928Z,99755.31
2022-10-06T03:21:51.478Z,99763.72
2022-10-06T03:24:18.719Z,99757.00
2022-10-06T03:26:51.401Z,99762.50
2022-10-06T03:29:20.553Z,99770.53
2022-10-06T03:31:52.641Z,99778.03
2022-10-06T03:34:19.687Z,99774.53
2022-10-06T03:36:46.761Z,99780.47
2022-10-06T03:39:16.691Z,99784.56
2022-10-06T03:41:43.760Z,99785.09
2022-10-06T03:44:10.810Z,99795.81
2022-10-06T03:46:40.944Z,99795.88
2022-10-06T03:49:08.392Z,99810.91
2022-10-06T03:51:41.602Z,99803.13
2022-10-06T03:54:13.391Z,99806.41
2022-10-06T03:56:43.382Z,99807.16
2022-10-06T03:59:16.385Z,99808.41
2022-10-06T04:01:48.201Z,99812.06
2022-10-06T04:04:23.701Z,99817.31
2022-10-06T04:06:55.291Z,99815.66
2022-10-06T04:09:22.919Z,99829.31
2022-10-06T04:11:51.753Z,99825.09
2022-10-06T04:14:19.678Z,99836.66
2022-10-06T04:16:49.740Z,99834.22
2022-10-06T04:19:22.322Z,99843.09
2022-10-06T04:21:53.290Z,99854.16
2022-10-06T04:24:28.257Z,99845.25
2022-10-06T04:27:16.851Z,99844.06
2022-10-06T04:29:48.927Z,99851.16
2022-10-06T04:32:16.509Z,99852.03
2022-10-06T04:34:43.782Z,99862.00
2022-10-06T04:37:11.543Z,99858.13
2022-10-06T04:39:39.943Z,99857.13
2022-10-06T04:42:07.841Z,99856.09
2022-10-06T04:44:35.008Z,99866.94
2022-10-06T04:47:04.190Z,99867.56
2022-10-06T04:49:31.735Z,99861.19
2022-10-06T04:51:59.571Z,99868.31
2022-10-06T04:54:33.566Z,99863.09
2022-10-06T04:57:02.021Z,99872.59
2022-10-06T04:59:49.478Z,99876.16
2022-10-06T05:02:19.081Z,99871.66
2022-10-06T05:04:46.756Z,99879.81
2022-10-06T05:07:15.556Z,99886.06
2022-10-06T05:09:43.281Z,99886.53
2022-10-06T05:12:11.465Z,99892.66
2022-10-06T05:14:39.239Z,99888.47
2022-10-06T05:17:06.376Z,99901.91
2022-10-06T05:20:00.039Z,99900.03
2022-10-06T05:22:27.158Z,99904.63
2022-10-06T05:24:54.228Z,99906.09
2022-10-06T05:27:21.600Z,99905.81
2022-10-06T05:29:48.875Z,99919.03
2022-10-06T05:32:16.005Z,99908.72
2022-10-06T05:34:43.102Z,99918.16
2022-10-06T05:37:10.939Z,99918.78
2022-10-06T05:39:39.266Z,99924.00
2022-10-06T05:42:06.374Z,99929.41
2022-10-06T05:44:33.615Z,99933.06
2022-10-06T05:47:06.326Z,99935.31
2022-10-06T05:49:33.466Z,99935.81
2022-10-06T05:52:03.392Z,99946.50
2022-10-06T05:54:33.216Z,99947.03
2022-10-06T05:57:00.723Z,99954.72
2022-10-06T05:59:29.665Z,99956.63
2022-10-06T06:01:59.406Z,99954.00
2022-10-06T06:04:33.528Z,99955.06
2022-10-06T06:07:01.299Z,99959.19
2022-10-06T06:09:28.933Z,99961.28
2022-10-06T06:12:08.946Z,99977.53
2022-10-06T06:15:09.818Z,99973.59
2022-10-06T06:17:46.998Z,99969.66
2022-10-06T06:20:39.311Z,99985.31
2022-10-06T06:23:06.551Z,99987.59
2022-10-06T06:25:33.599Z,99982.66
2022-10-06T06:28:00.795Z,99978.44
2022-10-06T06:30:27.824Z,99995.28
2022-10-06T06:33:00.053Z,99991.00
2022-10-06T06:35:27.339Z,99993.88
2022-10-06T06:37:54.410Z,100000.47
2022-10-06T06:40:21.949Z,100004.38
2022-10-06T06:42:53.671Z,100010.38
2022-10-06T06:45:53.413Z,100015.50
2022-10-06T06:48:25.761Z,100016.66
2022-10-06T06:50:58.363Z,100026.38
2022-10-06T06:53:26.299Z,100027.94
2022-10-06T06:55:57.970Z,100018.53
2022-10-06T06:58:25.271Z,100028.47
2022-10-06T07:00:52.915Z,100030.47
2022-10-06T07:03:52.204Z,100031.59
2022-10-06T07:06:13.947Z,100039.84
2022-10-06T07:08:45.693Z,100039.59
2022-10-06T07:11:17.256Z,100048.22
2022-10-06T07:13:47.273Z,100051.91
2022-10-06T07:16:36.326Z,100050.06
2022-10-06T07:19:24.944Z,100057.03
2022-10-06T07:22:21.041Z,100065.66
2022-10-06T07:25:07.467Z,100071.19
2022-10-06T07:27:51.037Z,100076.78
2022-10-06T07:30:26.646Z,100068.19
2022-10-06T07:33:22.836Z,100083.88
2022-10-06T07:35:51.912Z,100081.94
2022-10-06T07:38:25.724Z,100080.81
2022-10-06T07:43:46.810Z,100091.16
2022-10-06T07:46:15.326Z,100084.94
2022-10-06T07:48:49.060Z,100085.75
2022-10-06T07:51:19.291Z,100088.03
2022-10-06T07:53:50.127Z,100086.72
2022-10-06T07:56:28.268Z,100090.38
2022-10-06T07:58:58.584Z,100083.53
2022-10-06T08:01:30.692Z,100097.06
2022-10-06T08:03:57.985Z,100099.63
2022-10-06T08:06:25.012Z,100106.94
2022-10-06T08:08:56.430Z,100098.97
2022-10-06T08:11:23.601Z,100102.06
2022-10-06T08:13:52.013Z,100106.53
2022-10-06T08:16:23.579Z,100108.00
2022-10-06T08:18:53.392Z,100113.94
2022-10-06T08:21:31.936Z,100113.69
2022-10-06T08:24:00.862Z,100111.31
2022-10-06T08:26:31.018Z,100114.88
2022-10-06T08:29:02.126Z,100118.19
2022-10-06T08:31:31.289Z,100126.63
2022-10-06T08:33:58.561Z,100125.63
2022-10-06T08:36:31.308Z,100129.63
2022-10-06T08:39:00.739Z,100129.34
2022-10-06T08:41:48.471Z,100130.03
2022-10-06T08:44:19.423Z,100130.38
2022-10-06T08:47:04.089Z,100136.28
2022-10-06T08:49:41.093Z,100135.63
2022-10-06T08:52:28.572Z,100135.53
2022-10-06T08:55:43.505Z,100141.75
2022-10-06T08:58:33.387Z,100137.06
2022-10-06T09:01:10.112Z,100147.59
2022-10-06T09:03:37.836Z,100147.91
2022-10-06T09:07:09.224Z,100151.97
2022-10-06T09:10:06.876Z,100142.97
2022-10-06T09:12:53.737Z,100148.97
2022-10-06T09:15:37.986Z,100148.28
2022-10-06T09:18:22.206Z,100141.06
2022-10-06T09:20:59.009Z,100144.31
2022-10-06T09:23:50.168Z,100153.91
2022-10-06T09:26:32.944Z,100153.47
2022-10-06T09:29:00.185Z,100144.56
2022-10-06T09:31:34.504Z,100154.47
2022-10-06T09:34:21.434Z,100151.41
2022-10-06T09:37:09.245Z,100162.09
2022-10-06T09:39:48.124Z,100164.06
2022-10-06T09:42:35.506Z,100164.50
2022-10-06T09:45:05.849Z,100158.13
2022-10-06T09:48:29.589Z,100166.97
2022-10-06T09:51:13.510Z,100162.00
2022-10-06T09:54:38.700Z,100171.47
2022-10-06T09:58:02.628Z,100177.34
2022-10-06T10:01:26.546Z,100175.38
2022-10-06T10:04:20.968Z,100170.88
2022-10-06T10:06:49.568Z,100175.81
2022-10-06T10:09:27.042Z,100165.97
2022-10-06T10:12:33.273Z,100176.31
2022-10-06T10:15:25.594Z,100169.63
2022-10-06T10:18:50.900Z,100179.28
2022-10-06T10:21:31.821Z,100167.66
2022-10-06T10:24:02.660Z,100163.94
2022-10-06T10:26:39.308Z,100162.53
2022-10-06T10:29:43.454Z,100164.25
2022-10-06T10:33:07.020Z,100162.66
2022-10-06T10:36:30.999Z,100166.66
2022-10-06T10:38:59.935Z,100171.34
2022-10-06T10:41:37.903Z,100166.56
2022-10-06T10:45:01.368Z,100161.13
2022-10-06T10:48:24.917Z,100154.38
2022-10-06T10:51:05.836Z,100168.44
2022-10-06T10:53:43.922Z,100174.03
2022-10-06T10:56:13.677Z,100170.72
2022-10-06T10:58:43.707Z,100169.59
2022-10-06T11:01:19.897Z,100164.72
2022-10-06T11:03:56.522Z,100163.66
2022-10-06T11:06:54.483Z,100157.03
2022-10-06T11:09:55.327Z,100160.69
2022-10-06T11:12:51.115Z,100167.28
2022-10-06T11:15:47.789Z,100155.03
2022-10-06T11:19:11.159Z,100162.63
2022-10-06T11:22:20.769Z,100158.53
2022-10-06T11:25:00.080Z,100149.69
2022-10-06T11:27:30.805Z,100149.09
2022-10-06T11:30:15.327Z,100149.66
2022-10-06T11:33:03.045Z,100146.81
2022-10-06T11:35:37.625Z,100146.25
2022-10-06T11:38:18.880Z,100143.84
2022-10-06T11:41:10.129Z,100147.41
2022-10-06T11:44:00.466Z,100138.41
2022-10-06T11:46:45.475Z,100144.75
2022-10-06T11:49:33.789Z,100145.91
2022-10-06T11:52:08.477Z,100139.38
2022-10-06T11:54:47.434Z,100129.75
2022-10-06T11:57:29.372Z,100124.44
2022-10-06T12:00:03.600Z,100119.00
2022-10-06T12:02:44.829Z,100123.75
2022-10-06T12:08:02.113Z,100128.50
2022-10-06T12:10:29.305Z,100127.47
2022-10-06T12:13:51.275Z,100126.66
2022-10-06T12:19:19.238Z,100126.56
2022-10-06T12:22:22.718Z,100123.91
2022-10-06T12:25:14.762Z,100125.28
2022-10-06T12:28:23.296Z,100122.47
2022-10-06T12:31:18.423Z,100120.59
2022-10-06T12:33:46.238Z,100121.34
2022-10-06T12:36:24.032Z,100123.28
2022-10-06T12:39:22.966Z,100114.09
2022-10-06T12:42:03.178Z,100116.00
2022-10-06T12:44:51.669Z,100113.53
2022-10-06T12:47:32.588Z,100116.69
2022-10-06T12:50:25.360Z,100120.22
2022-10-06T12:53:05.925Z,100105.53
2022-10-06T12:56:32.096Z,100115.22
2022-10-06T12:59:19.860Z,100106.13
2022-10-06T13:01:51.243Z,100107.25
2022-10-06T13:04:36.437Z,100104.31
2022-10-06T13:07:59.644Z,100097.63
2022-10-06T13:11:23.157Z,100103.03
2022-10-06T13:13:54.030Z,100101.22
2022-10-06T13:17:17.308Z,100103.06
2022-10-06T13:20:40.666Z,100100.41
2022-10-06T13:24:04.002Z,100098.97
2022-10-06T13:26:32.724Z,100097.16
2022-10-06T13:29:00.845Z,100101.50
2022-10-06T13:32:24.272Z,100091.28
2022-10-06T13:35:47.835Z,100090.00
2022-10-06T13:39:11.486Z,100092.66
2022-10-06T13:41:46.564Z,100094.91
2022-10-06T13:44:18.725Z,100097.25
2022-10-06T13:47:42.560Z,100091.19
2022-10-06T13:50:19.783Z,100089.22
2022-10-06T13:52:48.803Z,100096.00
2022-10-06T13:55:25.728Z,100095.81
2022-10-06T13:58:00.968Z,100095.59
2022-10-06T14:00:46.147Z,100090.19
2022-10-06T14:03:25.468Z,100090.75
2022-10-06T14:06:05.884Z,100094.25
2022-10-06T14:08:34.073Z,100097.75
2022-10-06T14:11:06.034Z,100089.63
2022-10-06T14:13:47.315Z,100093.59
2022-10-06T14:16:25.090Z,100098.59
2022-10-06T14:18:59.969Z,100090.47
2022-10-06T14:21:34.189Z,100089.13
2022-10-06T14:24:28.274Z,100086.16
2022-10-06T14:27:02.767Z,100092.50
2022-10-06T14:29:31.549Z,100084.44
2022-10-06T14:32:18.007Z,100077.31
2022-10-06T14:34:46.901Z,100079.06
2022-10-06T14:37:16.741Z,100084.16
2022-10-06T14:39:46.005Z,100083.31
2022-10-06T14:42:15.502Z,100071.88
2022-10-06T14:44:43.188Z,100079.00
2022-10-06T14:47:10.435Z,100075.00
2022-10-06T14:49:37.965Z,100068.59
2022-10-06T14:52:08.119Z,100070.16
2022-10-06T14:54:35.458Z,100061.03
2022-10-06T14:57:02.457Z,100068.59
2022-10-06T14:59:29.476Z,100083.03
2022-10-06T15:01:56.689Z,100072.31
2022-10-06T15:04:27.840Z,100070.97
2022-10-06T15:07:13.437Z,100067.41
2022-10-06T15:09:43.849Z,100061.59
2022-10-06T15:12:11.220Z,100061.63
2022-10-06T15:14:39.743Z,100062.66
2022-10-06T15:17:07.030Z,100071.28
2022-10-06T15:19:34.247Z,100062.53
2022-10-06T15:22:05.852Z,100053.97
2022-10-06T15:24:33.223Z,100059.66
2022-10-06T15:27:22.513Z,100063.00
2022-10-06T15:29:52.289Z,100054.81
2022-10-06T15:32:19.296Z,100048.03
2022-10-06T15:34:46.310Z,100052.97
2022-10-06T15:37:13.345Z,100048.16
2022-10-06T15:39:40.329Z,100054.13
2022-10-06T15:42:08.653Z,100044.59
2022-10-06T15:44:36.066Z,100045.25
2022-10-06T15:47:05.929Z,100053.38
2022-10-06T15:49:37.970Z,100052.44
2022-10-06T15:52:05.733Z,100046.19
2022-10-06T15:54:40.163Z,100048.00
2022-10-06T15:57:12.164Z,100045.09
2022-10-06T15:59:44.099Z,100035.34
2022-10-06T16:02:15.604Z,100049.03
2022-10-06T16:04:43.561Z,100040.88
2022-10-06T16:07:19.389Z,100051.94
2022-10-06T16:09:49.827Z,100039.31
2022-10-06T16:12:21.267Z,100035.56
2022-10-06T16:14:48.937Z,100038.38
2022-10-06T16:17:16.026Z,100039.94
2022-10-06T16:19:43.933Z,100041.00
2022-10-06T16:22:17.433Z,100041.94
2022-10-06T16:24:44.693Z,100039.41
2022-10-06T16:27:13.540Z,100040.53
2022-10-06T16:29:40.966Z,100041.25
2022-10-06T16:32:08.159Z,100038.06
2022-10-06T16:34:35.225Z,100038.00
2022-10-06T16:37:02.213Z,100041.56
2022-10-06T16:39:29.303Z,100044.84
2022-10-06T16:41:56.324Z,100050.75
2022-10-06T16:44:23.349Z,100047.47
2022-10-06T16:46:50.431Z,100045.44
2022-10-06T16:49:17.533Z,100047.66
2022-10-06T16:51:49.644Z,100054.22
2022-10-06T16:54:17.839Z,100052.38
2022-10-06T16:56:53.808Z,100051.03
2022-10-06T16:59:28.758Z,100048.09
2022-10-06T17:01:55.893Z,100048.59
2022-10-06T17:04:25.348Z,100059.00
2022-10-06T17:06:55.333Z,100055.53
2022-10-06T17:09:27.899Z,100056.19
2022-10-06T17:12:03.713Z,100057.06
2022-10-06T17:14:33.125Z,100052.47
2022-10-06T17:17:00.577Z,100048.84
2022-10-06T17:19:29.834Z,100047.94
2022-10-06T17:22:03.666Z,100052.88
2022-10-06T17:24:31.299Z,100056.13
2022-10-06T17:26:59.049Z,100058.00
2022-10-06T17:29:27.150Z,100056.13
2022-10-06T17:31:59.981Z,100062.94
2022-10-06T17:34:32.344Z,100064.00
2022-10-06T17:37:02.366Z,100066.66
2022-10-06T17:39:30.515Z,100062.50
2022-10-06T17:41:57.661Z,100069.69
2022-10-06T17:44:27.241Z,100065.94
2022-10-06T17:47:00.266Z,100071.81
2022-10-06T17:49:29.814Z,100073.84
2022-10-06T17:51:57.229Z,100071.91
2022-10-06T17:54:26.978Z,100066.94
2022-10-06T17:56:57.098Z,100058.81
2022-10-06T17:59:30.827Z,100062.25
2022-10-06T18:02:02.444Z,100061.41
2022-10-06T18:04:30.431Z,100061.88
2022-10-06T18:06:57.564Z,100058.78
2022-10-06T18:09:24.948Z,100057.31
2022-10-06T18:11:56.404Z,100057.28
2022-10-06T18:14:32.284Z,100058.72
2022-10-06T18:17:02.301Z,100054.56
2022-10-06T18:19:33.136Z,100060.03
2022-10-06T18:22:11.606Z,100059.97
2022-10-06T18:24:40.028Z,100059.16
2022-10-06T18:27:08.519Z,100058.09
2022-10-06T18:29:38.467Z,100054.69
2022-10-06T18:37:42.238Z,100058.41
2022-10-06T18:40:11.058Z,100049.78
2022-10-06T18:42:39.142Z,100049.06
2022-10-06T18:45:26.810Z,100048.19
2022-10-06T18:48:12.685Z,100055.03
2022-10-06T18:50:40.197Z,100056.38
2022-10-06T18:53:07.335Z,100059.34
2022-10-06T18:55:34.869Z,100050.91
2022-10-06T18:58:02.562Z,100052.41
2022-10-06T19:00:31.087Z,100057.44
2022-10-06T19:02:58.407Z,100050.53
2022-10-06T19:05:27.654Z,100051.94
2022-10-06T19:07:55.707Z,100053.00
2022-10-06T19:10:23.129Z,100056.13
2022-10-06T19:12:50.680Z,100061.94
2022-10-06T19:15:20.617Z,100055.09
2022-10-06T19:17:49.448Z,100057.09
2022-10-06T19:20:18.315Z,100054.69
2022-10-06T19:22:47.408Z,100050.94
2022-10-06T19:25:18.579Z,100045.88
2022-10-06T19:27:45.883Z,100053.53
2022-10-06T19:30:13.506Z,100053.88
2022-10-06T19:32:40.690Z,100052.41
2022-10-06T19:35:10.268Z,100048.75
2022-10-06T19:37:38.614Z,100048.91
2022-10-06T19:40:08.532Z,100052.94
2022-10-06T19:42:47.571Z,100066.09
2022-10-06T19:45:15.983Z,100058.47
2022-10-06T19:47:45.032Z,100062.78
2022-10-06T19:50:13.051Z,100058.31
2022-10-06T19:52:43.108Z,100055.56
2022-10-06T19:55:10.173Z,100052.84
2022-10-06T19:57:37.219Z,100059.84
2022-10-06T20:00:06.251Z,100059.47
2022-10-06T20:02:42.817Z,100058.41
2022-10-06T20:05:14.105Z,100050.25
2022-10-06T20:07:43.796Z,100049.16
2022-10-06T20:10:12.559Z,100055.66
2022-10-06T20:12:41.318Z,100057.75
2022-10-06T20:15:09.844Z,100055.00
2022-10-06T20:17:37.060Z,100047.25
2022-10-06T20:20:04.419Z,100054.50
2022-10-06T20:22:31.786Z,100057.84
2022-10-06T20:24:58.943Z,100059.78
2022-10-06T20:27:25.920Z,100058.53
2022-10-06T20:29:53.730Z,100064.50
2022-10-06T20:32:21.930Z,100064.19
2022-10-06T20:34:48.916Z,100059.16
2022-10-06T20:37:15.887Z,100060.56
2022-10-06T20:40:01.233Z,100053.44
2022-10-06T20:42:28.212Z,100058.72
2022-10-06T20:44:55.173Z,100065.41
2022-10-06T20:47:23.288Z,100061.44
2022-10-06T20:49:55.014Z,100069.25
2022-10-06T20:52:24.208Z,100056.44
2022-10-06T20:54:51.935Z,100056.34
2022-10-06T20:57:18.989Z,100057.31
2022-10-06T20:59:46.410Z,100062.75
2022-10-06T21:02:13.518Z,100061.06
2022-10-06T21:04:43.465Z,100061.44
2022-10-06T21:07:11.168Z,100059.22
2022-10-06T21:09:47.506Z,100057.44
2022-10-06T21:12:17.073Z,100053.78
2022-10-06T21:14:44.215Z,100048.13
2022-10-06T21:17:11.314Z,100052.44
2022-10-06T21:19:38.404Z,100047.63
2022-10-06T21:22:10.616Z,100043.03
2022-10-06T21:24:37.861Z,100036.94
2022-10-06T21:27:30.217Z,100039.34
2022-10-06T21:29:57.376Z,100039.78
2022-10-06T21:32:24.771Z,100042.09
2022-10-06T21:34:56.348Z,100039.13
2022-10-06T21:37:23.337Z,100032.34
2022-10-06T21:39:50.640Z,100030.19
2022-10-06T21:42:18.353Z,100023.91
2022-10-06T21:44:45.476Z,100026.84
2022-10-06T21:47:12.809Z,100019.94
2022-10-06T21:49:39.852Z,100017.47
2022-10-06T21:52:07.004Z,100017.06
2022-10-06T21:54:34.469Z,100017.94
2022-10-06T21:57:01.805Z,100015.16
2022-10-06T21:59:28.845Z,100009.00
2022-10-06T22:01:56.771Z,100002.59
2022-10-06T22:04:24.250Z,99998.22
2022-10-06T22:06:51.681Z,99998.22
2022-10-06T22:09:20.649Z,99992.06
2022-10-06T22:11:47.835Z,100004.16
2022-10-06T22:14:17.612Z,99993.91
2022-10-06T22:16:45.384Z,99995.03
2022-10-06T22:19:14.699Z,99987.84
2022-10-06T22:21:45.584Z,99987.59
2022-10-06T22:24:19.548Z,99988.72
2022-10-06T22:26:48.520Z,99983.41
2022-10-06T22:29:18.283Z,99989.50
2022-10-06T22:31:47.089Z,99986.38
2022-10-06T22:34:18.681Z,99990.06
2022-10-06T22:36:46.070Z,99984.34
2022-10-06T22:39:13.351Z,99980.63
2022-10-06T22:41:40.788Z,99981.03
2022-10-06T22:44:07.960Z,99987.34
2022-10-06T22:46:36.974Z,99980.44
2022-10-06T22:49:05.144Z,99974.38
2022-10-06T22:51:32.446Z,99984.91
2022-10-06T22:54:00.394Z,99968.75
2022-10-06T22:56:31.250Z,99967.31
2022-10-06T22:59:01.723Z,99964.19
2022-10-06T23:01:30.427Z,99959.63
2022-10-06T23:03:58.441Z,99961.38
2022-10-06T23:06:26.010Z,99955.16
2022-10-06T23:08:53.007Z,99954.22
2022-10-06T23:11:22.568Z,99944.78
2022-10-06T23:13:50.337Z,99951.56
2022-10-06T23:16:19.198Z,99936.91
2022-10-06T23:18:47.648Z,99937.41
2022-10-06T23:21:21.255Z,99931.81
2022-10-06T23:23:52.257Z,99939.00
2022-10-06T23:26:21.890Z,99930.94
2022-10-06T23:28:56.309Z,99926.38
2022-10-06T23:31:24.136Z,99921.06
2022-10-06T23:33:51.447Z,99917.66
2022-10-06T23:36:18.858Z,99918.75
2022-10-06T23:38:47.244Z,99922.34
2022-10-06T23:41:15.382Z,99923.00
2022-10-06T23:43:42.918Z,99919.53
2022-10-06T23:46:10.299Z,99923.00
2022-10-06T23:48:37.480Z,99915.00
2022-10-06T23:51:12.304Z,99912.91
2022-10-06T23:53:39.496Z,99917.41
2022-10-06T23:56:07.804Z,99907.66
2022-10-06T23:58:35.479Z,99908.63
